Time;durP1;ratioP1;P1;durP2;ratioP2;P2;SDS_P1;SDS_P2;PMS_P1;PMS_P2;Temp;Humidity;BMP_temperature;BMP_pressure;BME280_temperature;BME280_humidity;BME280_pressure;Samples;Min_cycle;Max_cycle;Signal;HPM_P1;HPM_P2
2022/07/17 00:00:27;;;;;;;3.43;1.57;;;20.00;93.30;;;;;;5032907;28;20765;-55
2022/07/17 00:02:54;;;;;;;1.60;1.50;;;19.90;93.30;;;;;;5037520;28;20203;-54
2022/07/17 00:05:21;;;;;;;2.07;1.73;;;19.80;93.50;;;;;;5027505;28;20206;-54
2022/07/17 00:07:49;;;;;;;3.03;1.50;;;19.70;93.20;;;;;;5032712;28;20218;-54
2022/07/17 00:10:17;;;;;;;1.40;1.40;;;19.70;92.70;;;;;;5043211;28;20199;-55
2022/07/17 00:12:44;;;;;;;1.67;1.50;;;19.70;92.60;;;;;;5036321;28;20230;-53
2022/07/17 00:15:11;;;;;;;1.53;1.43;;;19.80;92.80;;;;;;5038296;28;20258;-53
2022/07/17 00:17:38;;;;;;;5.27;1.60;;;19.80;93.70;;;;;;5037660;28;20785;-54
2022/07/17 00:20:07;;;;;;;1.47;1.30;;;19.70;94.10;;;;;;5030460;28;20283;-53
2022/07/17 00:22:34;;;;;;;1.90;1.80;;;19.60;94.20;;;;;;5024377;28;20206;-54
2022/07/17 00:25:03;;;;;;;1.63;1.43;;;19.50;93.90;;;;;;5033166;28;20302;-53
2022/07/17 00:27:30;;;;;;;2.80;2.10;;;19.50;94.40;;;;;;5043896;28;20222;-54
2022/07/17 00:29:57;;;;;;;2.83;1.30;;;19.40;95.00;;;;;;5047715;28;20210;-54
2022/07/17 00:32:24;;;;;;;1.80;1.70;;;19.20;95.30;;;;;;5026463;28;20264;-54
2022/07/17 00:34:51;;;;;;;5.07;1.50;;;19.20;95.40;;;;;;5052067;28;20205;-54
2022/07/17 00:37:18;;;;;;;2.00;1.43;;;19.10;96.60;;;;;;5051904;28;20305;-54
2022/07/17 00:39:45;;;;;;;1.43;1.43;;;18.90;96.40;;;;;;5052199;28;20271;-54
2022/07/17 00:42:14;;;;;;;4.60;3.17;;;18.80;96.70;;;;;;5036047;28;20244;-54
2022/07/17 00:44:43;;;;;;;1.50;1.40;;;18.80;96.60;;;;;;5034407;28;20257;-53
2022/07/17 00:47:15;;;;;;;2.15;1.63;;;18.80;96.50;;;;;;5021086;28;20453;-53
2022/07/17 00:49:43;;;;;;;2.20;2.10;;;18.80;96.60;;;;;;5029661;28;20203;-53
2022/07/17 00:52:10;;;;;;;2.60;1.80;;;18.70;97.00;;;;;;5031414;28;20719;-54
2022/07/17 00:54:39;;;;;;;1.63;1.53;;;18.70;97.20;;;;;;5036465;28;20206;-54
2022/07/17 00:57:08;;;;;;;1.67;1.50;;;18.60;97.40;;;;;;5037913;28;20202;-55
2022/07/17 00:59:37;;;;;;;1.80;1.50;;;18.50;97.70;;;;;;5031639;28;20226;-53
2022/07/17 01:02:05;;;;;;;1.47;1.47;;;18.50;98.20;;;;;;5024998;28;20267;-53
2022/07/17 01:04:33;;;;;;;2.20;1.60;;;18.40;98.30;;;;;;5028979;28;20298;-53
2022/07/17 01:07:01;;;;;;;2.40;1.90;;;18.30;98.80;;;;;;5037460;28;20202;-53
2022/07/17 01:09:28;;;;;;;1.63;1.53;;;18.20;98.50;;;;;;5036653;28;20310;-54
2022/07/17 01:11:56;;;;;;;1.67;1.67;;;18.20;98.20;;;;;;5032749;28;20202;-54
2022/07/17 01:14:26;;;;;;;1.73;1.63;;;18.30;97.60;;;;;;5036495;28;20229;-54
2022/07/17 01:16:55;;;;;;;2.70;2.40;;;18.20;98.10;;;;;;5037383;28;20696;-53
2022/07/17 01:19:22;;;;;;;1.63;1.60;;;18.20;98.60;;;;;;5020238;28;20231;-54
2022/07/17 01:21:51;;;;;;;1.50;1.50;;;18.20;98.90;;;;;;5031893;28;20209;-53
2022/07/17 01:24:19;;;;;;;2.13;2.00;;;18.20;98.30;;;;;;5048549;28;20198;-54
2022/07/17 01:26:48;;;;;;;2.10;2.00;;;18.20;98.10;;;;;;5041701;28;20248;-53
2022/07/17 01:29:17;;;;;;;2.47;2.27;;;18.20;98.50;;;;;;5026931;28;20217;-54
2022/07/17 01:31:44;;;;;;;2.60;2.40;;;18.20;98.60;;;;;;5036904;28;20206;-54
2022/07/17 01:34:13;;;;;;;1.80;1.80;;;18.20;99.00;;;;;;5028193;28;20408;-54
2022/07/17 01:36:40;;;;;;;2.57;1.30;;;18.20;99.50;;;;;;5035711;28;20202;-54
2022/07/17 01:39:11;;;;;;;1.87;1.77;;;18.10;99.90;;;;;;5027327;28;20234;-53
2022/07/17 01:41:39;;;;;;;2.10;2.00;;;18.00;99.90;;;;;;5039148;28;20260;-54
2022/07/17 01:44:10;;;;;;;2.70;2.23;;;18.00;99.90;;;;;;5051919;28;20199;-53
2022/07/17 01:46:37;;;;;;;3.93;1.70;;;17.90;99.90;;;;;;5037731;28;20202;-54
2022/07/17 01:49:04;;;;;;;1.83;1.73;;;17.90;99.90;;;;;;5036349;28;20230;-53
2022/07/17 01:51:31;;;;;;;2.00;1.80;;;17.80;99.90;;;;;;5033567;28;20202;-54
2022/07/17 01:53:58;;;;;;;2.20;2.10;;;17.80;99.90;;;;;;5047257;28;20202;-53
2022/07/17 01:56:26;;;;;;;2.00;1.73;;;17.70;99.90;;;;;;5042995;28;20205;-54
2022/07/17 01:58:53;;;;;;;2.33;2.23;;;17.70;99.90;;;;;;5039337;28;20674;-53
2022/07/17 02:01:20;;;;;;;2.13;1.90;;;17.60;99.90;;;;;;5035102;28;20268;-53
2022/07/17 02:03:47;;;;;;;2.23;2.13;;;17.60;99.90;;;;;;5039129;28;20233;-56
2022/07/17 02:06:15;;;;;;;1.73;1.70;;;17.50;99.90;;;;;;5046157;28;20264;-53
2022/07/17 02:08:42;;;;;;;1.87;1.80;;;17.50;99.90;;;;;;5045480;28;20254;-54
2022/07/17 02:11:09;;;;;;;1.97;1.83;;;17.50;99.90;;;;;;5033113;28;20238;-54
2022/07/17 02:13:37;;;;;;;2.33;2.03;;;17.40;99.90;;;;;;5039659;28;20265;-54
2022/07/17 02:16:05;;;;;;;2.63;1.67;;;17.40;99.90;;;;;;5037357;28;20201;-53
2022/07/17 02:18:33;;;;;;;2.10;2.00;;;17.40;99.90;;;;;;5041313;28;20226;-54
2022/07/17 02:21:00;;;;;;;2.10;1.70;;;17.40;99.90;;;;;;5037177;28;20218;-53
2022/07/17 02:23:28;;;;;;;1.87;1.77;;;17.40;99.90;;;;;;5044630;28;20206;-54
2022/07/17 02:25:55;;;;;;;2.30;1.90;;;17.30;99.90;;;;;;5054964;28;20202;-53
2022/07/17 02:28:22;;;;;;;1.70;1.70;;;17.30;99.90;;;;;;5043180;28;20457;-53
2022/07/17 02:30:50;;;;;;;1.40;1.40;;;17.30;99.90;;;;;;5033212;28;20673;-54
2022/07/17 02:33:19;;;;;;;3.40;2.07;;;17.20;99.90;;;;;;5049540;28;20247;-54
2022/07/17 02:35:46;;;;;;;2.07;1.97;;;17.20;99.90;;;;;;5044702;28;20203;-54
2022/07/17 02:38:23;;;;;;;1.80;1.77;;;17.10;99.90;;;;;;5045709;28;20218;-53
2022/07/17 02:40:50;;;;;;;1.60;1.60;;;17.10;99.90;;;;;;5037023;28;20218;-54
2022/07/17 02:43:17;;;;;;;2.00;1.90;;;17.10;99.90;;;;;;5036217;28;20198;-54
2022/07/17 02:45:45;;;;;;;2.30;2.10;;;17.10;99.90;;;;;;5033375;28;20229;-54
2022/07/17 02:48:13;;;;;;;2.20;2.10;;;17.10;99.90;;;;;;5048374;28;20560;-53
2022/07/17 02:50:40;;;;;;;2.80;2.47;;;17.20;99.90;;;;;;5035082;28;20256;-53
2022/07/17 02:53:07;;;;;;;2.20;2.10;;;17.20;99.90;;;;;;5040107;28;20213;-53
2022/07/17 02:55:34;;;;;;;3.07;2.87;;;17.10;99.90;;;;;;5041032;28;20203;-53
2022/07/17 02:58:01;;;;;;;3.43;2.50;;;17.20;99.90;;;;;;5034559;28;20230;-53
2022/07/17 03:00:31;;;;;;;2.33;2.17;;;17.10;99.90;;;;;;5027656;28;20237;-53
2022/07/17 03:02:58;;;;;;;3.00;2.37;;;17.10;99.90;;;;;;5026125;28;20252;-53
2022/07/17 03:05:27;;;;;;;2.70;2.37;;;17.00;99.90;;;;;;5040917;28;20210;-53
2022/07/17 03:07:54;;;;;;;2.47;2.30;;;17.00;99.90;;;;;;5034921;28;20226;-53
2022/07/17 03:10:21;;;;;;;2.73;2.60;;;16.90;99.90;;;;;;5039706;28;20206;-53
2022/07/17 03:12:48;;;;;;;4.27;2.80;;;16.90;99.90;;;;;;5040197;28;20202;-53
2022/07/17 03:15:15;;;;;;;2.30;2.10;;;16.70;99.90;;;;;;5031002;28;20248;-53
2022/07/17 03:17:42;;;;;;;2.73;2.50;;;16.60;99.90;;;;;;5034199;28;21118;-53
2022/07/17 03:20:10;;;;;;;4.00;2.40;;;16.60;99.90;;;;;;5037441;28;20287;-53
2022/07/17 03:22:38;;;;;;;2.33;2.33;;;16.40;99.90;;;;;;5036109;28;20646;-53
2022/07/17 03:25:07;;;;;;;2.33;2.27;;;16.40;99.90;;;;;;5036391;28;20200;-53
2022/07/17 03:27:34;;;;;;;2.93;2.43;;;16.40;99.90;;;;;;5031864;28;20330;-53
2022/07/17 03:30:01;;;;;;;2.83;2.60;;;16.40;99.90;;;;;;5035484;28;20575;-53
2022/07/17 03:32:28;;;;;;;2.83;2.63;;;16.40;99.90;;;;;;5034912;28;20282;-53
2022/07/17 03:34:55;;;;;;;2.70;2.50;;;16.30;99.90;;;;;;5039402;28;20206;-53
2022/07/17 03:37:22;;;;;;;1.87;1.77;;;16.30;99.90;;;;;;5043785;28;20687;-53
2022/07/17 03:39:50;;;;;;;2.90;2.80;;;16.30;99.90;;;;;;5033408;28;20223;-53
2022/07/17 03:42:18;;;;;;;2.80;2.70;;;16.30;99.90;;;;;;5025392;28;20202;-53
2022/07/17 03:44:44;;;;;;;3.23;3.03;;;16.30;99.90;;;;;;5029977;28;20210;-52
2022/07/17 03:47:11;;;;;;;3.30;3.07;;;16.40;99.90;;;;;;5039925;28;20656;-53
2022/07/17 03:49:39;;;;;;;3.97;3.77;;;16.30;99.90;;;;;;5030084;28;20246;-53
2022/07/17 03:52:06;;;;;;;3.73;3.53;;;16.40;99.90;;;;;;5032689;28;20202;-53
2022/07/17 03:54:33;;;;;;;7.13;3.57;;;16.30;99.90;;;;;;5033695;28;20239;-53
2022/07/17 03:57:01;;;;;;;3.50;3.27;;;16.30;99.90;;;;;;5026842;28;20207;-54
2022/07/17 03:59:28;;;;;;;4.30;4.10;;;16.40;99.90;;;;;;5037588;28;20229;-53
2022/07/17 04:01:56;;;;;;;4.30;4.00;;;16.40;99.90;;;;;;5025732;28;20769;-53
2022/07/17 04:04:23;;;;;;;4.23;3.93;;;16.30;99.90;;;;;;5036513;28;20199;-53
2022/07/17 04:06:49;;;;;;;3.73;3.53;;;16.30;99.90;;;;;;5041666;28;20206;-53
2022/07/17 04:09:16;;;;;;;3.87;3.50;;;16.30;99.90;;;;;;5036227;28;20260;-53
2022/07/17 04:11:43;;;;;;;4.60;4.27;;;16.30;99.90;;;;;;5025842;28;20280;-53
2022/07/17 04:14:12;;;;;;;4.47;4.17;;;16.30;99.90;;;;;;5024365;28;20198;-53
2022/07/17 04:16:39;;;;;;;5.10;4.53;;;16.40;99.90;;;;;;5035880;28;20716;-52
2022/07/17 04:19:06;;;;;;;5.30;4.80;;;16.40;99.90;;;;;;5095501;22;20224;-49
2022/07/17 04:21:33;;;;;;;5.13;4.80;;;16.50;99.90;;;;;;5057814;28;20244;-49
2022/07/17 04:23:59;;;;;;;4.63;4.30;;;16.40;99.90;;;;;;5087458;28;20243;-50
2022/07/17 04:26:26;;;;;;;4.43;4.17;;;16.50;99.90;;;;;;5082622;28;20253;-49
2022/07/17 04:28:53;;;;;;;7.13;5.63;;;16.50;99.90;;;;;;5060416;28;20218;-49
2022/07/17 04:31:22;;;;;;;4.43;4.03;;;16.50;99.90;;;;;;5050348;28;20198;-49
2022/07/17 04:33:52;;;;;;;4.83;4.00;;;16.60;99.90;;;;;;5053466;28;20247;-50
2022/07/17 04:36:19;;;;;;;4.13;3.73;;;16.60;99.90;;;;;;5059307;28;20256;-49
2022/07/17 04:38:46;;;;;;;3.93;3.63;;;16.70;99.90;;;;;;5051478;28;20226;-49
2022/07/17 04:41:13;;;;;;;5.40;4.77;;;16.80;99.90;;;;;;5049441;28;20275;-49
2022/07/17 04:43:40;;;;;;;4.53;4.33;;;16.90;99.90;;;;;;5055218;28;20259;-49
2022/07/17 04:46:07;;;;;;;4.07;3.77;;;17.00;99.90;;;;;;5059296;28;20197;-49
2022/07/17 04:48:36;;;;;;;5.67;4.27;;;17.20;99.90;;;;;;5059107;28;20218;-50
2022/07/17 04:51:03;;;;;;;5.17;4.10;;;17.40;99.90;;;;;;5061869;28;20289;-49
2022/07/17 04:53:30;;;;;;;5.27;4.60;;;17.40;99.90;;;;;;5055478;28;20255;-49
2022/07/17 04:55:57;;;;;;;5.17;4.70;;;17.50;99.90;;;;;;5053740;28;20206;-49
2022/07/17 04:58:26;;;;;;;4.97;4.33;;;17.50;99.90;;;;;;5058196;28;20257;-50
2022/07/17 05:00:53;;;;;;;4.70;4.40;;;17.60;99.90;;;;;;5055862;28;20635;-49
2022/07/17 05:03:20;;;;;;;4.30;3.63;;;17.60;99.90;;;;;;5041534;28;20206;-49
2022/07/17 05:05:49;;;;;;;4.03;3.70;;;17.80;99.90;;;;;;5046958;28;20263;-50
2022/07/17 05:08:16;;;;;;;4.17;3.87;;;18.10;99.90;;;;;;5051855;28;20638;-49
2022/07/17 05:10:43;;;;;;;6.10;3.77;;;18.60;99.90;;;;;;5049954;28;20217;-49
2022/07/17 05:13:10;;;;;;;3.63;3.37;;;19.40;99.90;;;;;;5053800;28;20254;-49
2022/07/17 05:15:37;;;;;;;4.40;4.00;;;20.30;99.90;;;;;;5057207;28;20733;-49
2022/07/17 05:18:04;;;;;;;3.27;3.07;;;21.30;99.90;;;;;;5051391;28;20708;-49
2022/07/17 05:20:31;;;;;;;4.30;3.37;;;22.00;99.90;;;;;;5054216;28;20284;-50
2022/07/17 05:22:59;;;;;;;3.83;3.33;;;22.90;99.90;;;;;;5068364;28;20212;-49
2022/07/17 05:25:26;;;;;;;2.80;2.70;;;23.70;98.80;;;;;;5057227;28;20206;-50
2022/07/17 05:27:53;;;;;;;3.23;3.03;;;24.40;97.60;;;;;;5056211;28;20217;-50
2022/07/17 05:30:20;;;;;;;3.17;2.87;;;25.00;96.80;;;;;;5051329;28;20271;-50
2022/07/17 05:32:47;;;;;;;2.53;2.50;;;25.20;96.90;;;;;;5049971;28;20193;-50
2022/07/17 05:35:14;;;;;;;2.67;2.60;;;25.80;95.40;;;;;;5049960;28;20206;-50
2022/07/17 05:37:41;;;;;;;2.90;2.80;;;25.80;94.80;;;;;;5052255;28;20224;-49
2022/07/17 05:40:10;;;;;;;4.20;3.37;;;26.30;94.40;;;;;;5050579;28;20276;-50
2022/07/17 05:42:38;;;;;;;3.23;3.13;;;26.60;93.00;;;;;;5061297;28;20244;-50
2022/07/17 05:45:06;;;;;;;4.10;3.90;;;26.80;92.30;;;;;;5067998;28;20213;-50
2022/07/17 05:47:33;;;;;;;5.63;5.13;;;27.60;91.90;;;;;;5053952;28;20221;-50
2022/07/17 05:50:00;;;;;;;4.40;3.95;;;27.50;91.30;;;;;;5052021;28;20206;-50
2022/07/17 05:52:27;;;;;;;4.00;3.90;;;27.90;91.60;;;;;;5052647;28;20197;-50
2022/07/17 05:54:54;;;;;;;4.35;4.15;;;28.20;90.80;;;;;;5053661;28;20248;-50
2022/07/17 05:57:22;;;;;;;4.40;4.20;;;28.30;91.40;;;;;;5055732;28;20193;-50
2022/07/17 05:59:49;;;;;;;4.60;4.03;;;28.30;89.40;;;;;;5056360;28;20252;-50
2022/07/17 06:02:16;;;;;;;4.43;4.18;;;28.60;90.00;;;;;;5049800;28;20711;-50
2022/07/17 06:04:47;;;;;;;4.20;4.00;;;28.40;91.10;;;;;;5048268;28;20618;-50
2022/07/17 06:07:14;;;;;;;3.85;3.65;;;28.50;88.70;;;;;;5048365;28;20198;-50
2022/07/17 06:09:41;;;;;;;3.88;3.78;;;28.50;88.90;;;;;;5055372;28;20690;-50
2022/07/17 06:12:08;;;;;;;4.65;3.88;;;28.90;86.20;;;;;;5052719;28;20267;-50
2022/07/17 06:14:36;;;;;;;4.70;4.43;;;29.50;87.80;;;;;;5048963;28;20197;-50
2022/07/17 06:17:03;;;;;;;4.03;3.55;;;29.50;88.90;;;;;;5051063;28;20256;-50
2022/07/17 06:19:30;;;;;;;4.30;4.00;;;29.60;85.40;;;;;;5050922;28;20289;-50
2022/07/17 06:21:57;;;;;;;4.63;4.22;;;30.30;83.00;;;;;;5058718;28;20786;-50
2022/07/17 06:24:24;;;;;;;4.07;3.75;;;30.40;82.60;;;;;;5050446;28;20228;-50
2022/07/17 06:26:51;;;;;;;4.03;3.90;;;30.00;83.40;;;;;;5050896;28;20205;-51
2022/07/17 06:29:18;;;;;;;4.13;3.88;;;30.20;83.90;;;;;;5050865;28;20218;-51
2022/07/17 06:31:46;;;;;;;5.22;4.82;;;30.70;81.30;;;;;;5053495;28;20198;-50
2022/07/17 06:34:13;;;;;;;5.30;4.90;;;30.60;84.90;;;;;;5052078;28;20198;-50
2022/07/17 06:36:40;;;;;;;4.72;4.43;;;30.00;82.50;;;;;;5051202;28;20198;-50
2022/07/17 06:39:09;;;;;;;4.22;3.90;;;30.20;83.00;;;;;;5055880;28;20257;-50
2022/07/17 06:41:36;;;;;;;3.60;3.40;;;30.20;82.30;;;;;;5049484;28;20802;-50
2022/07/17 06:44:03;;;;;;;5.10;3.60;;;30.20;81.40;;;;;;5057097;28;20660;-50
2022/07/17 06:46:30;;;;;;;4.60;4.32;;;29.90;83.50;;;;;;5055359;28;20233;-50
2022/07/17 06:48:59;;;;;;;3.67;3.58;;;29.90;85.20;;;;;;5056891;28;20291;-50
2022/07/17 06:51:26;;;;;;;3.95;3.75;;;30.40;82.30;;;;;;5055419;28;20296;-50
2022/07/17 06:53:53;;;;;;;4.23;4.03;;;30.60;81.40;;;;;;5060495;28;20471;-50
2022/07/17 06:56:20;;;;;;;3.22;3.13;;;30.90;81.40;;;;;;5048609;28;20255;-50
2022/07/17 06:58:47;;;;;;;3.38;3.28;;;31.00;77.00;;;;;;5050409;28;20220;-50
2022/07/17 07:01:14;;;;;;;3.58;3.38;;;31.20;78.00;;;;;;5053216;28;20714;-51
2022/07/17 07:03:41;;;;;;;3.97;3.78;;;31.40;78.40;;;;;;5049503;28;20226;-51
2022/07/17 07:06:09;;;;;;;3.53;3.40;;;31.50;76.90;;;;;;5052586;28;20206;-50
2022/07/17 07:08:37;;;;;;;2.95;2.88;;;32.30;75.50;;;;;;5050135;28;20840;-51
2022/07/17 07:11:04;;;;;;;3.05;2.95;;;32.90;73.60;;;;;;5054008;28;20660;-50
2022/07/17 07:13:31;;;;;;;3.30;3.00;;;33.30;72.90;;;;;;5057011;28;20198;-51
2022/07/17 07:15:58;;;;;;;2.85;2.75;;;33.30;75.30;;;;;;5056459;28;20202;-50
2022/07/17 07:18:25;;;;;;;3.22;3.03;;;32.70;76.30;;;;;;5057260;28;20233;-50
2022/07/17 07:20:52;;;;;;;2.42;2.42;;;32.70;74.20;;;;;;5052528;28;20248;-50
2022/07/17 07:23:20;;;;;;;2.85;2.75;;;33.00;76.20;;;;;;5052617;28;20206;-51
2022/07/17 07:25:47;;;;;;;2.85;2.75;;;33.00;73.30;;;;;;5052928;28;20257;-51
2022/07/17 07:28:15;;;;;;;2.20;2.10;;;32.90;73.00;;;;;;5059520;28;20213;-51
2022/07/17 07:30:42;;;;;;;2.42;2.42;;;32.40;74.80;;;;;;5054457;28;20248;-50
2022/07/17 07:33:09;;;;;;;2.60;2.50;;;31.80;76.60;;;;;;5052194;28;20221;-50
2022/07/17 07:35:36;;;;;;;3.03;2.58;;;32.40;75.50;;;;;;5050108;28;20206;-51
2022/07/17 07:38:03;;;;;;;2.50;2.50;;;32.50;79.50;;;;;;5050406;28;20268;-51
2022/07/17 07:40:32;;;;;;;2.67;2.20;;;32.50;77.20;;;;;;5059255;28;20202;-52
2022/07/17 07:42:59;;;;;;;4.90;2.97;;;32.70;75.80;;;;;;5062264;28;20210;-50
2022/07/17 07:45:26;;;;;;;2.33;2.13;;;32.90;74.10;;;;;;5059759;28;20202;-51
2022/07/17 07:47:53;;;;;;;2.63;2.53;;;32.70;77.20;;;;;;5051113;28;20221;-51
2022/07/17 07:50:23;;;;;;;2.20;2.15;;;32.30;76.10;;;;;;5055214;28;20194;-51
2022/07/17 07:52:51;;;;;;;7.60;2.30;;;32.80;76.80;;;;;;5048903;28;20222;-51
2022/07/17 07:55:18;;;;;;;2.53;2.20;;;32.50;78.90;;;;;;5060163;28;20194;-50
2022/07/17 07:57:46;;;;;;;2.17;2.08;;;32.30;82.00;;;;;;5059880;28;20221;-51
2022/07/17 08:00:14;;;;;;;2.40;2.20;;;31.60;82.20;;;;;;5057432;28;20286;-51
2022/07/17 08:02:41;;;;;;;2.20;2.20;;;32.00;80.60;;;;;;5064156;28;20319;-51
2022/07/17 08:05:09;;;;;;;2.15;2.03;;;32.00;82.30;;;;;;5064476;28;20197;-51
2022/07/17 08:07:36;;;;;;;2.08;1.88;;;32.70;77.80;;;;;;5059293;28;20271;-51
2022/07/17 08:10:04;;;;;;;1.92;1.92;;;32.60;77.30;;;;;;5058329;28;21542;-51
2022/07/17 08:12:31;;;;;;;1.80;1.70;;;32.60;74.80;;;;;;5056897;28;20280;-50
2022/07/17 08:14:59;;;;;;;1.75;1.70;;;32.80;73.20;;;;;;5055757;28;20237;-51
2022/07/17 08:17:26;;;;;;;2.33;2.20;;;33.10;74.30;;;;;;5056814;28;20259;-51
2022/07/17 08:19:54;;;;;;;1.88;1.55;;;33.50;75.30;;;;;;5064672;28;20258;-52
2022/07/17 08:22:21;;;;;;;2.10;2.10;;;33.20;74.30;;;;;;5050583;28;20282;-50
2022/07/17 08:24:48;;;;;;;2.55;2.35;;;33.00;74.40;;;;;;5053262;28;20641;-53
2022/07/17 08:27:15;;;;;;;2.03;1.92;;;32.70;76.90;;;;;;5053515;28;20201;-50
2022/07/17 08:29:42;;;;;;;1.98;1.90;;;31.60;75.00;;;;;;5052469;28;20255;-50
2022/07/17 08:32:10;;;;;;;2.10;2.00;;;31.20;77.60;;;;;;5060755;28;20255;-50
2022/07/17 08:34:37;;;;;;;2.47;2.28;;;31.30;76.30;;;;;;5058840;28;20209;-51
2022/07/17 08:37:04;;;;;;;2.67;2.28;;;31.70;79.10;;;;;;5056182;28;20292;-50
2022/07/17 08:39:31;;;;;;;2.42;2.33;;;31.40;80.10;;;;;;5058075;28;20204;-50
2022/07/17 08:41:58;;;;;;;5.55;2.53;;;31.80;80.00;;;;;;5061964;28;20228;-50
2022/07/17 08:44:25;;;;;;;4.00;2.30;;;31.60;81.00;;;;;;5054041;28;20258;-51
2022/07/17 08:46:54;;;;;;;3.90;2.65;;;31.90;82.30;;;;;;5052133;28;20194;-51
2022/07/17 08:49:23;;;;;;;4.47;2.83;;;31.90;79.00;;;;;;5056917;28;20212;-50
2022/07/17 08:51:51;;;;;;;2.13;2.13;;;32.20;78.00;;;;;;5048882;28;20198;-50
2022/07/17 08:54:19;;;;;;;2.25;2.15;;;32.60;77.20;;;;;;5062365;28;20258;-51
2022/07/17 08:56:46;;;;;;;3.00;2.90;;;32.90;75.50;;;;;;5053293;28;20558;-51
2022/07/17 08:59:14;;;;;;;2.47;2.30;;;32.20;76.60;;;;;;5057004;28;20267;-50
2022/07/17 09:01:42;;;;;;;2.20;2.10;;;31.40;75.30;;;;;;5047296;28;20221;-50
2022/07/17 09:04:10;;;;;;;2.58;2.30;;;30.80;81.10;;;;;;5050207;28;20197;-50
2022/07/17 09:06:40;;;;;;;2.88;1.95;;;31.20;75.20;;;;;;5051761;28;20194;-50
2022/07/17 09:09:14;;;;;;;1.73;1.67;;;31.50;74.30;;;;;;5053941;28;20619;-51
2022/07/17 09:11:46;;;;;;;3.10;3.00;;;32.10;77.30;;;;;;5060676;28;20215;-50
2022/07/17 09:14:19;;;;;;;2.05;1.95;;;31.80;74.20;;;;;;5070901;28;20212;-50
2022/07/17 09:16:52;;;;;;;2.80;2.60;;;31.30;76.00;;;;;;5062755;28;20630;-51
2022/07/17 09:19:30;;;;;;;4.60;3.05;;;31.00;76.30;;;;;;5049495;28;20668;-50
2022/07/17 09:22:13;;;;;;;2.58;2.47;;;30.30;75.10;;;;;;5048408;28;20220;-50
2022/07/17 09:24:45;;;;;;;2.80;2.70;;;30.60;79.40;;;;;;5046288;28;20651;-50
2022/07/17 09:27:17;;;;;;;2.47;2.45;;;31.10;80.60;;;;;;5050828;28;20194;-50
2022/07/17 09:29:55;;;;;;;3.15;2.85;;;30.80;75.50;;;;;;5049506;28;20280;-51
2022/07/17 09:32:23;;;;;;;2.80;2.60;;;31.40;78.60;;;;;;5057406;28;20625;-50
2022/07/17 09:34:51;;;;;;;2.67;2.45;;;31.60;78.50;;;;;;5060471;28;20729;-50
2022/07/17 09:37:19;;;;;;;2.25;2.15;;;31.60;80.00;;;;;;5054182;28;20193;-50
2022/07/17 09:39:48;;;;;;;2.45;2.35;;;31.70;79.70;;;;;;5053545;28;20208;-50
2022/07/17 09:42:27;;;;;;;3.38;2.67;;;31.90;76.20;;;;;;5050745;28;20218;-50
2022/07/17 09:45:02;;;;;;;2.85;2.65;;;31.70;79.10;;;;;;5050482;28;20267;-51
2022/07/17 09:47:30;;;;;;;2.15;2.10;;;31.80;78.70;;;;;;5050000;28;20225;-50
2022/07/17 09:49:58;;;;;;;2.05;1.92;;;32.00;77.10;;;;;;5050128;28;20197;-50
2022/07/17 09:52:29;;;;;;;2.88;2.75;;;31.80;77.40;;;;;;5057555;28;20205;-50
2022/07/17 09:54:57;;;;;;;1.92;1.90;;;32.10;79.60;;;;;;5058135;28;20290;-50
2022/07/17 09:57:26;;;;;;;2.83;2.67;;;32.30;78.70;;;;;;5052790;28;20274;-51
2022/07/17 09:59:55;;;;;;;5.43;2.30;;;32.40;78.60;;;;;;5062725;28;20200;-50
2022/07/17 10:02:22;;;;;;;3.40;3.08;;;32.10;82.60;;;;;;5056620;28;20209;-50
2022/07/17 10:04:50;;;;;;;3.30;3.03;;;32.20;78.80;;;;;;5054449;28;20209;-50
2022/07/17 10:07:18;;;;;;;4.53;2.10;;;32.20;82.20;;;;;;5060883;28;20681;-50
2022/07/17 10:09:46;;;;;;;2.50;2.40;;;32.40;78.30;;;;;;5054237;28;20206;-50
2022/07/17 10:12:14;;;;;;;2.28;2.17;;;32.00;77.70;;;;;;5053947;28;20263;-50
2022/07/17 10:14:42;;;;;;;1.92;1.92;;;32.50;83.30;;;;;;5054624;28;20609;-50
2022/07/17 10:17:11;;;;;;;2.10;1.98;;;32.50;78.70;;;;;;5052414;28;20298;-50
2022/07/17 10:19:48;;;;;;;1.88;1.77;;;31.80;77.70;;;;;;5052816;28;20205;-51
2022/07/17 10:22:16;;;;;;;2.65;2.55;;;31.60;78.40;;;;;;5053183;28;20351;-50
2022/07/17 10:24:49;;;;;;;2.70;2.50;;;31.80;78.70;;;;;;5054000;28;20204;-50
2022/07/17 10:27:24;;;;;;;2.45;2.35;;;31.60;80.10;;;;;;5057081;28;20204;-51
2022/07/17 10:30:03;;;;;;;2.20;2.10;;;31.90;79.80;;;;;;5051772;28;20209;-50
2022/07/17 10:32:30;;;;;;;3.45;2.60;;;31.50;81.60;;;;;;5088234;22;20233;-52
2022/07/17 10:35:00;;;;;;;2.33;2.00;;;31.30;80.90;;;;;;5073484;28;20627;-53
2022/07/17 10:37:29;;;;;;;2.13;1.98;;;31.80;82.10;;;;;;5074381;28;20554;-53
2022/07/17 10:40:04;;;;;;;2.00;1.90;;;32.20;82.90;;;;;;5071213;28;20251;-52
2022/07/17 10:42:47;;;;;;;4.47;2.13;;;31.90;79.00;;;;;;5072065;28;20600;-52
2022/07/17 10:45:16;;;;;;;2.30;2.20;;;31.70;78.00;;;;;;5051065;28;20208;-52
2022/07/17 10:47:49;;;;;;;2.33;2.22;;;30.90;81.30;;;;;;5059003;28;20202;-53
2022/07/17 10:50:18;;;;;;;1.75;1.65;;;30.90;82.80;;;;;;5056161;28;20582;-52
2022/07/17 10:52:56;;;;;;;2.95;2.20;;;31.10;83.00;;;;;;5059332;28;20244;-53
2022/07/17 10:55:25;;;;;;;3.50;2.33;;;31.30;82.20;;;;;;5057949;28;20292;-52
2022/07/17 10:57:51;;;;;;;2.70;1.90;;;31.60;84.30;;;;;;5050048;28;20675;-53
2022/07/17 11:00:19;;;;;;;1.63;1.48;;;31.20;76.80;;;;;;5063121;28;20205;-53
2022/07/17 11:02:46;;;;;;;2.90;1.95;;;30.70;81.60;;;;;;5069707;28;20309;-52
2022/07/17 11:05:15;;;;;;;1.85;1.75;;;30.50;80.20;;;;;;5065884;28;20356;-53
2022/07/17 11:07:58;;;;;;;2.47;2.38;;;30.20;80.60;;;;;;5060788;28;20643;-53
2022/07/17 11:10:28;;;;;;;2.22;1.60;;;30.20;83.80;;;;;;5055500;28;20240;-53
2022/07/17 11:12:56;;;;;;;1.83;1.77;;;29.90;83.00;;;;;;5053885;28;20218;-53
2022/07/17 11:15:23;;;;;;;2.40;2.30;;;29.60;85.60;;;;;;5058660;28;20616;-53
2022/07/17 11:17:51;;;;;;;3.40;2.40;;;29.40;83.20;;;;;;5056659;28;20292;-53
2022/07/17 11:20:18;;;;;;;1.88;1.77;;;29.60;86.30;;;;;;5056470;28;20705;-53
2022/07/17 11:22:45;;;;;;;2.03;1.90;;;29.80;82.30;;;;;;5045496;28;20237;-52
2022/07/17 11:25:13;;;;;;;2.70;1.92;;;29.70;82.30;;;;;;5060847;28;20201;-52
2022/07/17 11:27:42;;;;;;;2.75;2.53;;;29.60;85.30;;;;;;5060603;28;20868;-52
2022/07/17 11:30:16;;;;;;;1.98;1.98;;;29.50;87.50;;;;;;5051136;28;20735;-52
2022/07/17 11:32:43;;;;;;;3.50;2.08;;;29.60;83.60;;;;;;5042238;28;20272;-53
2022/07/17 11:35:18;;;;;;;2.20;2.10;;;29.40;87.50;;;;;;5056700;28;20229;-53
2022/07/17 11:37:45;;;;;;;1.90;1.80;;;29.30;82.80;;;;;;5061124;28;20287;-52
2022/07/17 11:40:12;;;;;;;1.92;1.92;;;29.30;86.90;;;;;;5051031;28;20603;-52
2022/07/17 11:42:41;;;;;;;2.42;2.17;;;29.30;88.40;;;;;;5041463;28;20292;-53
2022/07/17 11:45:09;;;;;;;2.05;2.00;;;29.30;87.30;;;;;;5045998;28;20205;-53
2022/07/17 11:47:37;;;;;;;2.38;2.28;;;29.30;81.70;;;;;;5044468;28;20288;-53
2022/07/17 11:50:10;;;;;;;2.25;2.15;;;29.10;85.00;;;;;;5053761;28;20291;-52
2022/07/17 11:52:42;;;;;;;1.88;1.88;;;28.90;84.00;;;;;;5033740;28;20202;-53
2022/07/17 11:55:10;;;;;;;2.60;2.45;;;28.80;83.40;;;;;;5043026;28;20204;-52
2022/07/17 11:57:46;;;;;;;2.25;2.15;;;28.70;85.60;;;;;;5051281;28;20783;-53
2022/07/17 12:00:16;;;;;;;2.60;1.92;;;28.80;85.90;;;;;;5051505;28;20686;-52
2022/07/17 12:02:44;;;;;;;2.13;1.77;;;29.00;84.70;;;;;;5057829;28;20283;-52
2022/07/17 12:05:11;;;;;;;2.65;2.08;;;29.00;82.40;;;;;;5052093;28;20207;-53
2022/07/17 12:07:43;;;;;;;2.00;1.80;;;29.00;88.30;;;;;;5048056;28;20283;-52
2022/07/17 12:10:19;;;;;;;2.65;2.45;;;29.00;86.20;;;;;;5044070;28;20206;-53
2022/07/17 12:12:56;;;;;;;1.85;1.83;;;28.90;86.90;;;;;;5045063;28;20240;-52
2022/07/17 12:15:35;;;;;;;1.63;1.63;;;28.90;86.30;;;;;;5045260;28;20202;-53
2022/07/17 12:18:03;;;;;;;2.22;2.08;;;28.90;84.50;;;;;;5053119;28;20202;-53
2022/07/17 12:20:42;;;;;;;2.53;2.33;;;29.00;89.50;;;;;;5058357;28;20205;-52
2022/07/17 12:23:10;;;;;;;2.80;2.72;;;29.10;87.50;;;;;;5041537;28;20243;-53
2022/07/17 12:25:37;;;;;;;2.22;2.13;;;29.10;84.20;;;;;;5047519;28;20210;-52
2022/07/17 12:28:05;;;;;;;2.15;2.05;;;28.90;83.60;;;;;;5045813;28;20204;-53
2022/07/17 12:30:32;;;;;;;2.65;1.98;;;28.80;85.00;;;;;;5040067;28;20280;-53
2022/07/17 12:33:00;;;;;;;5.45;2.50;;;28.60;83.30;;;;;;5046623;28;20251;-52
2022/07/17 12:35:27;;;;;;;2.17;2.08;;;28.70;84.30;;;;;;5043257;28;20673;-52
2022/07/17 12:37:54;;;;;;;2.58;2.38;;;28.70;85.80;;;;;;5029829;28;20276;-53
2022/07/17 12:40:21;;;;;;;3.33;1.85;;;28.70;85.20;;;;;;5031151;28;20198;-53
2022/07/17 12:42:48;;;;;;;2.75;2.42;;;28.60;85.50;;;;;;5033129;28;20304;-53
2022/07/17 12:45:16;;;;;;;2.42;2.20;;;28.60;84.10;;;;;;5053294;28;20208;-52
2022/07/17 12:47:43;;;;;;;2.22;1.85;;;28.30;83.50;;;;;;5051685;28;20206;-52
2022/07/17 12:50:10;;;;;;;2.47;2.28;;;28.40;88.00;;;;;;5050105;28;20198;-52
2022/07/17 12:52:37;;;;;;;1.65;1.63;;;28.40;84.80;;;;;;5040575;28;20256;-52